sensor_id;sensor_type;location;lat;lon;timestamp;P1;durP1;ratioP1;P2;durP2;ratioP2
1354;SDS011;671;48.972;9.276;2023-05-18T00:01:11;0.53;;;0.53;;
1354;SDS011;671;48.972;9.276;2023-05-18T00:03:39;0.40;;;0.40;;
1354;SDS011;671;48.972;9.276;2023-05-18T00:06:06;0.50;;;0.50;;
1354;SDS011;671;48.972;9.276;2023-05-18T00:08:33;0.50;;;0.50;;
1354;SDS011;671;48.972;9.276;2023-05-18T00:11:00;0.40;;;0.40;;
1354;SDS011;671;48.972;9.276;2023-05-18T00:13:28;0.40;;;0.40;;
1354;SDS011;671;48.972;9.276;2023-05-18T00:15:55;0.47;;;0.47;;
1354;SDS011;671;48.972;9.276;2023-05-18T00:18:22;0.40;;;0.40;;
1354;SDS011;671;48.972;9.276;2023-05-18T00:20:49;0.50;;;0.50;;
1354;SDS011;671;48.972;9.276;2023-05-18T00:23:16;0.50;;;0.50;;
1354;SDS011;671;48.972;9.276;2023-05-18T00:25:43;0.50;;;0.50;;
1354;SDS011;671;48.972;9.276;2023-05-18T00:28:09;0.40;;;0.40;;
1354;SDS011;671;48.972;9.276;2023-05-18T00:30:37;0.50;;;0.50;;
1354;SDS011;671;48.972;9.276;2023-05-18T00:33:04;0.50;;;0.50;;
1354;SDS011;671;48.972;9.276;2023-05-18T00:35:30;0.50;;;0.50;;
1354;SDS011;671;48.972;9.276;2023-05-18T00:37:57;0.50;;;0.50;;
1354;SDS011;671;48.972;9.276;2023-05-18T00:40:23;0.50;;;0.50;;
1354;SDS011;671;48.972;9.276;2023-05-18T00:42:52;0.50;;;0.50;;
1354;SDS011;671;48.972;9.276;2023-05-18T00:45:19;0.50;;;0.50;;
1354;SDS011;671;48.972;9.276;2023-05-18T00:47:45;0.40;;;0.40;;
1354;SDS011;671;48.972;9.276;2023-05-18T00:50:13;0.50;;;0.50;;
1354;SDS011;671;48.972;9.276;2023-05-18T00:52:39;0.40;;;0.40;;
1354;SDS011;671;48.972;9.276;2023-05-18T00:55:07;0.50;;;0.50;;
1354;SDS011;671;48.972;9.276;2023-05-18T00:57:34;0.40;;;0.40;;
1354;SDS011;671;48.972;9.276;2023-05-18T01:00:03;0.40;;;0.40;;
1354;SDS011;671;48.972;9.276;2023-05-18T01:02:32;0.50;;;0.50;;
1354;SDS011;671;48.972;9.276;2023-05-18T01:05:02;0.40;;;0.40;;
1354;SDS011;671;48.972;9.276;2023-05-18T01:07:29;0.40;;;0.40;;
1354;SDS011;671;48.972;9.276;2023-05-18T01:09:58;0.40;;;0.40;;
1354;SDS011;671;48.972;9.276;2023-05-18T01:12:28;0.50;;;0.50;;
1354;SDS011;671;48.972;9.276;2023-05-18T01:15:13;0.43;;;0.43;;
1354;SDS011;671;48.972;9.276;2023-05-18T01:28:37;0.40;;;0.40;;
1354;SDS011;671;48.972;9.276;2023-05-18T01:31:04;0.40;;;0.40;;
1354;SDS011;671;48.972;9.276;2023-05-18T01:33:31;0.50;;;0.50;;
1354;SDS011;671;48.972;9.276;2023-05-18T01:35:57;0.40;;;0.40;;
1354;SDS011;671;48.972;9.276;2023-05-18T01:38:25;0.60;;;0.60;;
1354;SDS011;671;48.972;9.276;2023-05-18T01:40:56;0.40;;;0.40;;
1354;SDS011;671;48.972;9.276;2023-05-18T01:43:35;0.40;;;0.40;;
1354;SDS011;671;48.972;9.276;2023-05-18T01:49:17;0.50;;;0.50;;
1354;SDS011;671;48.972;9.276;2023-05-18T01:51:51;0.50;;;0.50;;
1354;SDS011;671;48.972;9.276;2023-05-18T01:54:21;0.60;;;0.60;;
1354;SDS011;671;48.972;9.276;2023-05-18T01:56:49;0.60;;;0.60;;
1354;SDS011;671;48.972;9.276;2023-05-18T01:59:19;0.50;;;0.50;;
1354;SDS011;671;48.972;9.276;2023-05-18T02:01:47;0.50;;;0.50;;
1354;SDS011;671;48.972;9.276;2023-05-18T02:04:13;0.60;;;0.60;;
1354;SDS011;671;48.972;9.276;2023-05-18T02:06:40;0.50;;;0.50;;
1354;SDS011;671;48.972;9.276;2023-05-18T02:09:06;0.40;;;0.40;;
1354;SDS011;671;48.972;9.276;2023-05-18T02:11:33;0.40;;;0.40;;
1354;SDS011;671;48.972;9.276;2023-05-18T02:14:00;0.40;;;0.40;;
1354;SDS011;671;48.972;9.276;2023-05-18T02:16:27;0.40;;;0.40;;
1354;SDS011;671;48.972;9.276;2023-05-18T02:18:53;0.50;;;0.50;;
1354;SDS011;671;48.972;9.276;2023-05-18T02:21:20;0.47;;;0.47;;
1354;SDS011;671;48.972;9.276;2023-05-18T02:23:47;0.60;;;0.60;;
1354;SDS011;671;48.972;9.276;2023-05-18T02:26:13;0.57;;;0.57;;
1354;SDS011;671;48.972;9.276;2023-05-18T02:28:40;0.47;;;0.47;;
1354;SDS011;671;48.972;9.276;2023-05-18T02:31:08;0.40;;;0.40;;
1354;SDS011;671;48.972;9.276;2023-05-18T02:33:39;0.40;;;0.40;;
1354;SDS011;671;48.972;9.276;2023-05-18T02:36:12;0.37;;;0.37;;
1354;SDS011;671;48.972;9.276;2023-05-18T02:38:39;0.50;;;0.50;;
1354;SDS011;671;48.972;9.276;2023-05-18T02:41:10;0.40;;;0.40;;
1354;SDS011;671;48.972;9.276;2023-05-18T02:43:36;0.50;;;0.50;;
1354;SDS011;671;48.972;9.276;2023-05-18T02:46:03;0.40;;;0.40;;
1354;SDS011;671;48.972;9.276;2023-05-18T02:48:30;0.50;;;0.50;;
1354;SDS011;671;48.972;9.276;2023-05-18T02:50:56;0.50;;;0.50;;
1354;SDS011;671;48.972;9.276;2023-05-18T02:53:23;0.50;;;0.50;;
1354;SDS011;671;48.972;9.276;2023-05-18T02:55:54;0.40;;;0.40;;
1354;SDS011;671;48.972;9.276;2023-05-18T02:58:22;0.40;;;0.40;;
1354;SDS011;671;48.972;9.276;2023-05-18T03:00:50;0.50;;;0.50;;
1354;SDS011;671;48.972;9.276;2023-05-18T03:03:20;0.33;;;0.33;;
1354;SDS011;671;48.972;9.276;2023-05-18T03:05:48;0.50;;;0.50;;
1354;SDS011;671;48.972;9.276;2023-05-18T03:08:20;0.50;;;0.50;;
1354;SDS011;671;48.972;9.276;2023-05-18T03:10:51;0.50;;;0.50;;
1354;SDS011;671;48.972;9.276;2023-05-18T03:13:18;0.43;;;0.43;;
1354;SDS011;671;48.972;9.276;2023-05-18T03:15:44;0.50;;;0.50;;
1354;SDS011;671;48.972;9.276;2023-05-18T03:18:12;0.30;;;0.30;;
1354;SDS011;671;48.972;9.276;2023-05-18T03:20:38;0.40;;;0.40;;
1354;SDS011;671;48.972;9.276;2023-05-18T03:23:05;0.50;;;0.50;;
1354;SDS011;671;48.972;9.276;2023-05-18T03:25:32;0.33;;;0.33;;
1354;SDS011;671;48.972;9.276;2023-05-18T03:28:02;0.50;;;0.50;;
1354;SDS011;671;48.972;9.276;2023-05-18T03:30:31;0.40;;;0.40;;
1354;SDS011;671;48.972;9.276;2023-05-18T03:32:59;0.40;;;0.40;;
1354;SDS011;671;48.972;9.276;2023-05-18T03:35:26;0.50;;;0.50;;
1354;SDS011;671;48.972;9.276;2023-05-18T03:37:53;0.43;;;0.43;;
1354;SDS011;671;48.972;9.276;2023-05-18T03:40:20;0.40;;;0.40;;
1354;SDS011;671;48.972;9.276;2023-05-18T03:42:47;0.40;;;0.40;;
1354;SDS011;671;48.972;9.276;2023-05-18T03:45:13;0.50;;;0.50;;
1354;SDS011;671;48.972;9.276;2023-05-18T03:47:40;0.50;;;0.50;;
1354;SDS011;671;48.972;9.276;2023-05-18T03:50:07;0.40;;;0.40;;
1354;SDS011;671;48.972;9.276;2023-05-18T03:52:34;0.50;;;0.50;;
1354;SDS011;671;48.972;9.276;2023-05-18T03:55:01;0.50;;;0.50;;
1354;SDS011;671;48.972;9.276;2023-05-18T03:57:28;0.30;;;0.30;;
1354;SDS011;671;48.972;9.276;2023-05-18T03:59:55;0.40;;;0.40;;
1354;SDS011;671;48.972;9.276;2023-05-18T04:02:23;0.40;;;0.40;;
1354;SDS011;671;48.972;9.276;2023-05-18T04:04:50;0.60;;;0.60;;
1354;SDS011;671;48.972;9.276;2023-05-18T04:07:18;0.50;;;0.50;;
1354;SDS011;671;48.972;9.276;2023-05-18T04:09:47;0.40;;;0.40;;
1354;SDS011;671;48.972;9.276;2023-05-18T04:12:17;0.50;;;0.50;;
1354;SDS011;671;48.972;9.276;2023-05-18T04:14:43;0.40;;;0.40;;
1354;SDS011;671;48.972;9.276;2023-05-18T04:17:19;0.40;;;0.40;;
1354;SDS011;671;48.972;9.276;2023-05-18T04:19:48;0.40;;;0.40;;
1354;SDS011;671;48.972;9.276;2023-05-18T04:22:15;0.40;;;0.40;;
1354;SDS011;671;48.972;9.276;2023-05-18T04:24:42;0.40;;;0.40;;
1354;SDS011;671;48.972;9.276;2023-05-18T04:27:10;0.50;;;0.50;;
1354;SDS011;671;48.972;9.276;2023-05-18T04:29:37;0.40;;;0.40;;
1354;SDS011;671;48.972;9.276;2023-05-18T04:32:04;0.40;;;0.40;;
1354;SDS011;671;48.972;9.276;2023-05-18T04:34:32;0.40;;;0.40;;
1354;SDS011;671;48.972;9.276;2023-05-18T04:37:03;0.60;;;0.60;;
1354;SDS011;671;48.972;9.276;2023-05-18T04:39:32;0.50;;;0.50;;
1354;SDS011;671;48.972;9.276;2023-05-18T04:42:00;0.40;;;0.40;;
1354;SDS011;671;48.972;9.276;2023-05-18T04:44:29;0.40;;;0.40;;
1354;SDS011;671;48.972;9.276;2023-05-18T04:46:59;0.40;;;0.40;;
1354;SDS011;671;48.972;9.276;2023-05-18T04:49:25;0.40;;;0.40;;
1354;SDS011;671;48.972;9.276;2023-05-18T04:51:53;0.50;;;0.50;;
1354;SDS011;671;48.972;9.276;2023-05-18T04:54:25;0.50;;;0.50;;
1354;SDS011;671;48.972;9.276;2023-05-18T04:56:56;0.40;;;0.40;;
1354;SDS011;671;48.972;9.276;2023-05-18T04:59:23;0.50;;;0.50;;
1354;SDS011;671;48.972;9.276;2023-05-18T05:01:51;0.30;;;0.30;;
1354;SDS011;671;48.972;9.276;2023-05-18T05:04:19;0.50;;;0.50;;
1354;SDS011;671;48.972;9.276;2023-05-18T05:06:46;0.50;;;0.50;;
1354;SDS011;671;48.972;9.276;2023-05-18T05:09:13;0.60;;;0.60;;
1354;SDS011;671;48.972;9.276;2023-05-18T05:11:40;0.40;;;0.40;;
1354;SDS011;671;48.972;9.276;2023-05-18T05:14:06;0.37;;;0.37;;
1354;SDS011;671;48.972;9.276;2023-05-18T05:16:33;0.40;;;0.40;;
1354;SDS011;671;48.972;9.276;2023-05-18T05:19:00;0.50;;;0.50;;
1354;SDS011;671;48.972;9.276;2023-05-18T05:21:27;0.43;;;0.43;;
1354;SDS011;671;48.972;9.276;2023-05-18T05:23:53;0.40;;;0.40;;
1354;SDS011;671;48.972;9.276;2023-05-18T05:26:20;0.47;;;0.47;;
1354;SDS011;671;48.972;9.276;2023-05-18T05:28:46;0.43;;;0.43;;
1354;SDS011;671;48.972;9.276;2023-05-18T05:31:13;0.50;;;0.50;;
1354;SDS011;671;48.972;9.276;2023-05-18T05:33:40;0.50;;;0.50;;
1354;SDS011;671;48.972;9.276;2023-05-18T05:36:07;0.50;;;0.50;;
1354;SDS011;671;48.972;9.276;2023-05-18T05:38:33;0.40;;;0.40;;
1354;SDS011;671;48.972;9.276;2023-05-18T05:41:00;0.40;;;0.40;;
1354;SDS011;671;48.972;9.276;2023-05-18T05:43:26;0.40;;;0.40;;
1354;SDS011;671;48.972;9.276;2023-05-18T05:45:53;0.50;;;0.50;;
1354;SDS011;671;48.972;9.276;2023-05-18T05:48:19;0.37;;;0.37;;
1354;SDS011;671;48.972;9.276;2023-05-18T05:50:46;0.50;;;0.50;;
1354;SDS011;671;48.972;9.276;2023-05-18T05:53:13;0.50;;;0.50;;
1354;SDS011;671;48.972;9.276;2023-05-18T05:55:42;0.60;;;0.60;;
1354;SDS011;671;48.972;9.276;2023-05-18T05:58:09;0.50;;;0.50;;
1354;SDS011;671;48.972;9.276;2023-05-18T06:00:35;0.50;;;0.50;;
1354;SDS011;671;48.972;9.276;2023-05-18T06:03:02;0.40;;;0.40;;
1354;SDS011;671;48.972;9.276;2023-05-18T06:05:28;0.50;;;0.50;;
1354;SDS011;671;48.972;9.276;2023-05-18T06:07:55;0.40;;;0.40;;
1354;SDS011;671;48.972;9.276;2023-05-18T06:10:22;0.40;;;0.40;;
1354;SDS011;671;48.972;9.276;2023-05-18T06:12:49;0.50;;;0.50;;
1354;SDS011;671;48.972;9.276;2023-05-18T06:15:15;0.50;;;0.50;;
1354;SDS011;671;48.972;9.276;2023-05-18T06:17:43;0.50;;;0.50;;
1354;SDS011;671;48.972;9.276;2023-05-18T06:20:10;0.50;;;0.50;;
1354;SDS011;671;48.972;9.276;2023-05-18T06:22:37;0.40;;;0.40;;
1354;SDS011;671;48.972;9.276;2023-05-18T06:25:04;0.40;;;0.40;;
1354;SDS011;671;48.972;9.276;2023-05-18T06:27:30;0.50;;;0.50;;
1354;SDS011;671;48.972;9.276;2023-05-18T06:29:57;0.40;;;0.40;;
1354;SDS011;671;48.972;9.276;2023-05-18T06:32:24;0.50;;;0.50;;
1354;SDS011;671;48.972;9.276;2023-05-18T06:34:50;0.47;;;0.47;;
1354;SDS011;671;48.972;9.276;2023-05-18T06:37:17;0.47;;;0.47;;
1354;SDS011;671;48.972;9.276;2023-05-18T06:39:45;0.50;;;0.50;;
1354;SDS011;671;48.972;9.276;2023-05-18T06:42:11;0.50;;;0.50;;
1354;SDS011;671;48.972;9.276;2023-05-18T06:44:38;0.50;;;0.50;;
1354;SDS011;671;48.972;9.276;2023-05-18T06:47:05;0.40;;;0.40;;
1354;SDS011;671;48.972;9.276;2023-05-18T06:49:31;0.40;;;0.40;;
1354;SDS011;671;48.972;9.276;2023-05-18T06:51:58;0.50;;;0.50;;
1354;SDS011;671;48.972;9.276;2023-05-18T06:54:24;0.50;;;0.50;;
1354;SDS011;671;48.972;9.276;2023-05-18T06:56:51;0.60;;;0.60;;
1354;SDS011;671;48.972;9.276;2023-05-18T06:59:17;0.40;;;0.40;;
1354;SDS011;671;48.972;9.276;2023-05-18T07:01:44;0.50;;;0.50;;
1354;SDS011;671;48.972;9.276;2023-05-18T07:04:10;0.47;;;0.47;;
1354;SDS011;671;48.972;9.276;2023-05-18T07:06:37;0.50;;;0.50;;
1354;SDS011;671;48.972;9.276;2023-05-18T07:09:04;0.40;;;0.40;;
1354;SDS011;671;48.972;9.276;2023-05-18T07:11:31;0.50;;;0.50;;
1354;SDS011;671;48.972;9.276;2023-05-18T07:13:57;0.40;;;0.40;;
1354;SDS011;671;48.972;9.276;2023-05-18T07:16:25;0.30;;;0.30;;
1354;SDS011;671;48.972;9.276;2023-05-18T07:18:52;0.40;;;0.40;;
1354;SDS011;671;48.972;9.276;2023-05-18T07:21:19;0.40;;;0.40;;
1354;SDS011;671;48.972;9.276;2023-05-18T07:23:45;0.40;;;0.40;;
1354;SDS011;671;48.972;9.276;2023-05-18T07:26:11;0.40;;;0.40;;
1354;SDS011;671;48.972;9.276;2023-05-18T07:28:38;0.40;;;0.30;;
1354;SDS011;671;48.972;9.276;2023-05-18T07:31:04;0.40;;;0.40;;
1354;SDS011;671;48.972;9.276;2023-05-18T07:33:31;0.50;;;0.50;;
1354;SDS011;671;48.972;9.276;2023-05-18T07:35:57;0.50;;;0.50;;
1354;SDS011;671;48.972;9.276;2023-05-18T07:38:24;0.40;;;0.40;;
1354;SDS011;671;48.972;9.276;2023-05-18T07:40:51;0.40;;;0.40;;
1354;SDS011;671;48.972;9.276;2023-05-18T07:43:17;0.40;;;0.40;;
1354;SDS011;671;48.972;9.276;2023-05-18T07:45:44;0.43;;;0.43;;
1354;SDS011;671;48.972;9.276;2023-05-18T07:48:10;0.40;;;0.40;;
1354;SDS011;671;48.972;9.276;2023-05-18T07:50:37;0.50;;;0.50;;
1354;SDS011;671;48.972;9.276;2023-05-18T07:53:03;0.40;;;0.40;;
1354;SDS011;671;48.972;9.276;2023-05-18T07:55:30;0.40;;;0.40;;
1354;SDS011;671;48.972;9.276;2023-05-18T07:57:57;0.30;;;0.30;;
1354;SDS011;671;48.972;9.276;2023-05-18T08:00:26;0.40;;;0.40;;
1354;SDS011;671;48.972;9.276;2023-05-18T08:02:52;0.40;;;0.40;;
1354;SDS011;671;48.972;9.276;2023-05-18T08:05:19;0.50;;;0.50;;
1354;SDS011;671;48.972;9.276;2023-05-18T08:07:47;0.40;;;0.40;;
1354;SDS011;671;48.972;9.276;2023-05-18T08:10:14;0.40;;;0.40;;
1354;SDS011;671;48.972;9.276;2023-05-18T08:12:41;0.40;;;0.40;;
1354;SDS011;671;48.972;9.276;2023-05-18T08:15:07;0.40;;;0.40;;
1354;SDS011;671;48.972;9.276;2023-05-18T08:17:34;0.37;;;0.37;;
1354;SDS011;671;48.972;9.276;2023-05-18T08:20:01;0.40;;;0.40;;
1354;SDS011;671;48.972;9.276;2023-05-18T08:22:29;0.30;;;0.30;;
1354;SDS011;671;48.972;9.276;2023-05-18T08:24:56;0.30;;;0.30;;
1354;SDS011;671;48.972;9.276;2023-05-18T08:27:25;0.30;;;0.30;;
1354;SDS011;671;48.972;9.276;2023-05-18T08:29:53;0.40;;;0.40;;
1354;SDS011;671;48.972;9.276;2023-05-18T08:32:19;0.30;;;0.30;;
1354;SDS011;671;48.972;9.276;2023-05-18T08:34:46;0.40;;;0.40;;
1354;SDS011;671;48.972;9.276;2023-05-18T08:37:16;0.30;;;0.30;;
1354;SDS011;671;48.972;9.276;2023-05-18T08:39:42;0.30;;;0.30;;
1354;SDS011;671;48.972;9.276;2023-05-18T08:42:15;0.30;;;0.30;;
1354;SDS011;671;48.972;9.276;2023-05-18T08:44:57;0.40;;;0.40;;
1354;SDS011;671;48.972;9.276;2023-05-18T08:47:46;0.40;;;0.40;;
1354;SDS011;671;48.972;9.276;2023-05-18T08:50:17;0.30;;;0.30;;
1354;SDS011;671;48.972;9.276;2023-05-18T08:52:46;0.30;;;0.30;;
1354;SDS011;671;48.972;9.276;2023-05-18T08:55:13;0.30;;;0.30;;
1354;SDS011;671;48.972;9.276;2023-05-18T08:57:42;0.30;;;0.30;;
1354;SDS011;671;48.972;9.276;2023-05-18T09:00:15;0.30;;;0.30;;
1354;SDS011;671;48.972;9.276;2023-05-18T09:02:42;0.30;;;0.30;;
1354;SDS011;671;48.972;9.276;2023-05-18T09:05:08;0.30;;;0.30;;
1354;SDS011;671;48.972;9.276;2023-05-18T09:07:37;0.30;;;0.30;;
1354;SDS011;671;48.972;9.276;2023-05-18T09:10:05;0.30;;;0.30;;
1354;SDS011;671;48.972;9.276;2023-05-18T09:12:32;0.30;;;0.30;;
1354;SDS011;671;48.972;9.276;2023-05-18T09:15:00;0.30;;;0.30;;
1354;SDS011;671;48.972;9.276;2023-05-18T09:17:28;0.30;;;0.30;;
1354;SDS011;671;48.972;9.276;2023-05-18T09:19:55;0.30;;;0.20;;
1354;SDS011;671;48.972;9.276;2023-05-18T09:22:21;0.30;;;0.30;;
1354;SDS011;671;48.972;9.276;2023-05-18T09:24:48;0.30;;;0.30;;
1354;SDS011;671;48.972;9.276;2023-05-18T09:27:14;0.30;;;0.30;;
1354;SDS011;671;48.972;9.276;2023-05-18T09:29:51;0.30;;;0.23;;
1354;SDS011;671;48.972;9.276;2023-05-18T09:32:21;0.30;;;0.20;;
1354;SDS011;671;48.972;9.276;2023-05-18T09:34:49;0.30;;;0.30;;
1354;SDS011;671;48.972;9.276;2023-05-18T09:37:19;0.30;;;0.20;;
1354;SDS011;671;48.972;9.276;2023-05-18T09:39:56;0.30;;;0.20;;
1354;SDS011;671;48.972;9.276;2023-05-18T09:42:34;0.30;;;0.20;;
1354;SDS011;671;48.972;9.276;2023-05-18T09:47:45;0.30;;;0.30;;
1354;SDS011;671;48.972;9.276;2023-05-18T09:50:16;0.30;;;0.20;;
1354;SDS011;671;48.972;9.276;2023-05-18T09:52:47;0.30;;;0.20;;
1354;SDS011;671;48.972;9.276;2023-05-18T09:55:14;0.30;;;0.20;;
1354;SDS011;671;48.972;9.276;2023-05-18T09:57:42;0.30;;;0.23;;
1354;SDS011;671;48.972;9.276;2023-05-18T10:00:11;0.30;;;0.20;;
1354;SDS011;671;48.972;9.276;2023-05-18T10:02:40;0.30;;;0.20;;
1354;SDS011;671;48.972;9.276;2023-05-18T10:05:26;0.30;;;0.20;;
1354;SDS011;671;48.972;9.276;2023-05-18T10:07:56;0.30;;;0.30;;
1354;SDS011;671;48.972;9.276;2023-05-18T10:10:26;0.30;;;0.20;;
1354;SDS011;671;48.972;9.276;2023-05-18T10:12:56;0.30;;;0.20;;
1354;SDS011;671;48.972;9.276;2023-05-18T10:15:23;0.30;;;0.20;;
1354;SDS011;671;48.972;9.276;2023-05-18T10:17:50;0.30;;;0.20;;
1354;SDS011;671;48.972;9.276;2023-05-18T10:20:21;0.30;;;0.27;;
1354;SDS011;671;48.972;9.276;2023-05-18T10:22:54;0.30;;;0.20;;
1354;SDS011;671;48.972;9.276;2023-05-18T10:25:26;0.30;;;0.20;;
1354;SDS011;671;48.972;9.276;2023-05-18T10:27:59;0.30;;;0.20;;
1354;SDS011;671;48.972;9.276;2023-05-18T10:30:31;0.30;;;0.20;;
1354;SDS011;671;48.972;9.276;2023-05-18T10:32:59;0.30;;;0.20;;
1354;SDS011;671;48.972;9.276;2023-05-18T10:35:27;0.30;;;0.20;;
1354;SDS011;671;48.972;9.276;2023-05-18T10:37:54;0.30;;;0.20;;
1354;SDS011;671;48.972;9.276;2023-05-18T10:40:25;0.30;;;0.20;;
1354;SDS011;671;48.972;9.276;2023-05-18T10:42:54;0.30;;;0.20;;
1354;SDS011;671;48.972;9.276;2023-05-18T10:45:22;0.30;;;0.20;;
1354;SDS011;671;48.972;9.276;2023-05-18T10:47:49;0.30;;;0.20;;
1354;SDS011;671;48.972;9.276;2023-05-18T10:50:20;0.30;;;0.20;;
1354;SDS011;671;48.972;9.276;2023-05-18T10:52:48;0.30;;;0.20;;
1354;SDS011;671;48.972;9.276;2023-05-18T10:55:16;0.30;;;0.20;;
1354;SDS011;671;48.972;9.276;2023-05-18T10:57:45;0.30;;;0.20;;
1354;SDS011;671;48.972;9.276;2023-05-18T11:00:16;0.30;;;0.30;;
1354;SDS011;671;48.972;9.276;2023-05-18T11:02:44;0.30;;;0.20;;
1354;SDS011;671;48.972;9.276;2023-05-18T11:05:11;0.30;;;0.20;;
1354;SDS011;671;48.972;9.276;2023-05-18T11:07:38;0.30;;;0.20;;
1354;SDS011;671;48.972;9.276;2023-05-18T11:10:09;0.30;;;0.30;;
1354;SDS011;671;48.972;9.276;2023-05-18T11:12:36;0.30;;;0.20;;
1354;SDS011;671;48.972;9.276;2023-05-18T11:15:03;0.30;;;0.20;;
1354;SDS011;671;48.972;9.276;2023-05-18T11:17:30;0.30;;;0.20;;
1354;SDS011;671;48.972;9.276;2023-05-18T11:22:43;0.30;;;0.20;;
1354;SDS011;671;48.972;9.276;2023-05-18T11:27:57;0.30;;;0.20;;
1354;SDS011;671;48.972;9.276;2023-05-18T11:30:28;0.30;;;0.20;;
1354;SDS011;671;48.972;9.276;2023-05-18T11:33:10;0.30;;;0.20;;
1354;SDS011;671;48.972;9.276;2023-05-18T11:38:43;0.30;;;0.20;;
1354;SDS011;671;48.972;9.276;2023-05-18T11:44:13;0.30;;;0.20;;
1354;SDS011;671;48.972;9.276;2023-05-18T11:49:29;0.30;;;0.20;;
1354;SDS011;671;48.972;9.276;2023-05-18T11:52:03;0.30;;;0.20;;
1354;SDS011;671;48.972;9.276;2023-05-18T11:54:33;0.30;;;0.20;;
1354;SDS011;671;48.972;9.276;2023-05-18T11:57:03;0.30;;;0.20;;
1354;SDS011;671;48.972;9.276;2023-05-18T11:59:30;0.30;;;0.20;;
1354;SDS011;671;48.972;9.276;2023-05-18T12:02:04;0.30;;;0.20;;
1354;SDS011;671;48.972;9.276;2023-05-18T12:04:31;0.30;;;0.20;;
1354;SDS011;671;48.972;9.276;2023-05-18T12:06:59;0.30;;;0.20;;
1354;SDS011;671;48.972;9.276;2023-05-18T12:09:30;0.30;;;0.20;;
1354;SDS011;671;48.972;9.276;2023-05-18T12:11:56;0.30;;;0.20;;
1354;SDS011;671;48.972;9.276;2023-05-18T12:14:23;0.30;;;0.20;;
1354;SDS011;671;48.972;9.276;2023-05-18T12:16:51;0.30;;;0.20;;
1354;SDS011;671;48.972;9.276;2023-05-18T12:19:19;0.30;;;0.20;;
1354;SDS011;671;48.972;9.276;2023-05-18T12:21:47;0.30;;;0.20;;
1354;SDS011;671;48.972;9.276;2023-05-18T12:24:13;0.30;;;0.20;;
1354;SDS011;671;48.972;9.276;2023-05-18T12:26:41;0.30;;;0.20;;
1354;SDS011;671;48.972;9.276;2023-05-18T12:29:11;0.30;;;0.20;;
1354;SDS011;671;48.972;9.276;2023-05-18T12:31:45;0.30;;;0.20;;
1354;SDS011;671;48.972;9.276;2023-05-18T12:34:12;0.30;;;0.20;;
1354;SDS011;671;48.972;9.276;2023-05-18T12:36:39;0.30;;;0.20;;
1354;SDS011;671;48.972;9.276;2023-05-18T12:39:08;0.30;;;0.20;;
1354;SDS011;671;48.972;9.276;2023-05-18T12:41:39;0.30;;;0.20;;
1354;SDS011;671;48.972;9.276;2023-05-18T12:44:06;0.30;;;0.20;;
1354;SDS011;671;48.972;9.276;2023-05-18T12:46:32;0.30;;;0.20;;
1354;SDS011;671;48.972;9.276;2023-05-18T12:48:59;0.30;;;0.20;;
1354;SDS011;671;48.972;9.276;2023-05-18T12:51:30;0.30;;;0.20;;
1354;SDS011;671;48.972;9.276;2023-05-18T12:53:57;0.30;;;0.20;;
1354;SDS011;671;48.972;9.276;2023-05-18T12:56:24;0.30;;;0.20;;
1354;SDS011;671;48.972;9.276;2023-05-18T12:58:57;0.30;;;0.20;;
1354;SDS011;671;48.972;9.276;2023-05-18T13:01:25;0.30;;;0.20;;
1354;SDS011;671;48.972;9.276;2023-05-18T13:03:56;0.30;;;0.20;;
1354;SDS011;671;48.972;9.276;2023-05-18T13:06:23;0.30;;;0.20;;
1354;SDS011;671;48.972;9.276;2023-05-18T13:08:54;0.30;;;0.20;;
1354;SDS011;671;48.972;9.276;2023-05-18T13:11:24;0.30;;;0.20;;
1354;SDS011;671;48.972;9.276;2023-05-18T13:13:56;0.30;;;0.20;;
1354;SDS011;671;48.972;9.276;2023-05-18T13:16:22;0.30;;;0.20;;
1354;SDS011;671;48.972;9.276;2023-05-18T13:18:54;0.40;;;0.20;;
1354;SDS011;671;48.972;9.276;2023-05-18T13:21:28;0.30;;;0.20;;
1354;SDS011;671;48.972;9.276;2023-05-18T13:23:54;0.30;;;0.20;;
1354;SDS011;671;48.972;9.276;2023-05-18T13:26:21;0.30;;;0.20;;
1354;SDS011;671;48.972;9.276;2023-05-18T13:28:50;0.30;;;0.20;;
1354;SDS011;671;48.972;9.276;2023-05-18T13:31:18;0.30;;;0.20;;
1354;SDS011;671;48.972;9.276;2023-05-18T13:33:45;0.30;;;0.20;;
1354;SDS011;671;48.972;9.276;2023-05-18T13:36:12;0.30;;;0.20;;
1354;SDS011;671;48.972;9.276;2023-05-18T13:38:38;0.30;;;0.20;;
1354;SDS011;671;48.972;9.276;2023-05-18T13:41:06;0.30;;;0.20;;
1354;SDS011;671;48.972;9.276;2023-05-18T13:43:34;0.30;;;0.20;;
1354;SDS011;671;48.972;9.276;2023-05-18T13:46:00;0.30;;;0.20;;
1354;SDS011;671;48.972;9.276;2023-05-18T13:48:27;0.30;;;0.20;;
1354;SDS011;671;48.972;9.276;2023-05-18T13:50:55;0.30;;;0.20;;
1354;SDS011;671;48.972;9.276;2023-05-18T13:53:22;0.30;;;0.20;;
1354;SDS011;671;48.972;9.276;2023-05-18T13:55:49;0.30;;;0.20;;
1354;SDS011;671;48.972;9.276;2023-05-18T13:58:15;0.30;;;0.20;;
1354;SDS011;671;48.972;9.276;2023-05-18T14:00:42;0.30;;;0.20;;
1354;SDS011;671;48.972;9.276;2023-05-18T14:03:09;0.30;;;0.20;;
1354;SDS011;671;48.972;9.276;2023-05-18T14:05:35;0.30;;;0.20;;
1354;SDS011;671;48.972;9.276;2023-05-18T14:08:02;0.30;;;0.20;;
1354;SDS011;671;48.972;9.276;2023-05-18T14:10:29;0.30;;;0.20;;
1354;SDS011;671;48.972;9.276;2023-05-18T14:12:55;0.30;;;0.20;;
1354;SDS011;671;48.972;9.276;2023-05-18T14:15:22;0.30;;;0.20;;
1354;SDS011;671;48.972;9.276;2023-05-18T14:17:49;0.30;;;0.20;;
1354;SDS011;671;48.972;9.276;2023-05-18T14:20:15;0.30;;;0.20;;
1354;SDS011;671;48.972;9.276;2023-05-18T14:22:41;0.30;;;0.20;;
1354;SDS011;671;48.972;9.276;2023-05-18T14:25:06;0.30;;;0.20;;
1354;SDS011;671;48.972;9.276;2023-05-18T14:27:32;0.30;;;0.20;;
1354;SDS011;671;48.972;9.276;2023-05-18T14:29:59;0.30;;;0.20;;
1354;SDS011;671;48.972;9.276;2023-05-18T14:32:26;0.30;;;0.10;;
1354;SDS011;671;48.972;9.276;2023-05-18T14:34:52;0.30;;;0.20;;
1354;SDS011;671;48.972;9.276;2023-05-18T14:37:22;0.30;;;0.20;;
1354;SDS011;671;48.972;9.276;2023-05-18T14:39:49;0.30;;;0.20;;
1354;SDS011;671;48.972;9.276;2023-05-18T14:42:15;0.30;;;0.20;;
1354;SDS011;671;48.972;9.276;2023-05-18T14:44:42;0.30;;;0.20;;
1354;SDS011;671;48.972;9.276;2023-05-18T14:47:08;0.30;;;0.20;;
1354;SDS011;671;48.972;9.276;2023-05-18T14:49:35;0.30;;;0.20;;
1354;SDS011;671;48.972;9.276;2023-05-18T14:52:02;0.30;;;0.20;;
1354;SDS011;671;48.972;9.276;2023-05-18T14:54:28;0.30;;;0.20;;
1354;SDS011;671;48.972;9.276;2023-05-18T14:56:55;0.30;;;0.20;;
1354;SDS011;671;48.972;9.276;2023-05-18T14:59:21;0.30;;;0.20;;
1354;SDS011;671;48.972;9.276;2023-05-18T15:01:48;0.30;;;0.20;;
1354;SDS011;671;48.972;9.276;2023-05-18T15:04:14;0.30;;;0.20;;
1354;SDS011;671;48.972;9.276;2023-05-18T15:06:42;0.30;;;0.20;;
1354;SDS011;671;48.972;9.276;2023-05-18T15:09:08;0.30;;;0.20;;
1354;SDS011;671;48.972;9.276;2023-05-18T15:11:35;0.30;;;0.20;;
1354;SDS011;671;48.972;9.276;2023-05-18T15:14:02;0.30;;;0.20;;
1354;SDS011;671;48.972;9.276;2023-05-18T15:16:28;0.30;;;0.20;;
1354;SDS011;671;48.972;9.276;2023-05-18T15:18:55;0.30;;;0.20;;
1354;SDS011;671;48.972;9.276;2023-05-18T15:21:21;0.30;;;0.20;;
1354;SDS011;671;48.972;9.276;2023-05-18T15:23:47;0.30;;;0.20;;
1354;SDS011;671;48.972;9.276;2023-05-18T15:26:14;0.30;;;0.20;;
1354;SDS011;671;48.972;9.276;2023-05-18T15:28:41;0.30;;;0.20;;
1354;SDS011;671;48.972;9.276;2023-05-18T15:31:09;0.30;;;0.20;;
1354;SDS011;671;48.972;9.276;2023-05-18T15:33:36;0.30;;;0.20;;
1354;SDS011;671;48.972;9.276;2023-05-18T15:36:07;0.30;;;0.20;;
1354;SDS011;671;48.972;9.276;2023-05-18T15:38:34;0.30;;;0.20;;
1354;SDS011;671;48.972;9.276;2023-05-18T15:41:00;0.30;;;0.20;;
1354;SDS011;671;48.972;9.276;2023-05-18T15:43:27;0.30;;;0.20;;
1354;SDS011;671;48.972;9.276;2023-05-18T15:45:55;0.30;;;0.20;;
1354;SDS011;671;48.972;9.276;2023-05-18T15:48:22;0.30;;;0.20;;
1354;SDS011;671;48.972;9.276;2023-05-18T15:50:49;0.30;;;0.20;;
1354;SDS011;671;48.972;9.276;2023-05-18T15:53:15;0.30;;;0.20;;
1354;SDS011;671;48.972;9.276;2023-05-18T15:55:42;0.30;;;0.20;;
1354;SDS011;671;48.972;9.276;2023-05-18T15:58:08;0.30;;;0.20;;
1354;SDS011;671;48.972;9.276;2023-05-18T16:00:35;0.30;;;0.20;;
1354;SDS011;671;48.972;9.276;2023-05-18T16:03:01;0.30;;;0.20;;
1354;SDS011;671;48.972;9.276;2023-05-18T16:05:28;0.30;;;0.20;;